Time;durP1;ratioP1;P1;durP2;ratioP2;P2;SDS_P1;SDS_P2;PMS_P1;PMS_P2;Temp;Humidity;BMP_temperature;BMP_pressure;BME280_temperature;BME280_humidity;BME280_pressure;Samples;Min_cycle;Max_cycle;Signal;HPM_P1;HPM_P2
2023/05/25 00:00:11;;;;;;;19.30;10.48;;;9.30;99.90;;;;;;5094280;28;20047;-62
2023/05/25 00:02:45;;;;;;;18.33;9.55;;;9.30;99.90;;;;;;5094345;28;20063;-62
2023/05/25 00:05:11;;;;;;;23.83;10.98;;;9.30;99.90;;;;;;5094543;28;20059;-62
2023/05/25 00:07:42;;;;;;;15.65;9.23;;;9.20;99.90;;;;;;5094026;28;20047;-62
2023/05/25 00:10:08;;;;;;;18.25;10.20;;;9.20;99.90;;;;;;5094567;28;20150;-62
2023/05/25 00:12:35;;;;;;;21.20;9.60;;;9.10;99.90;;;;;;5093630;28;20075;-62
2023/05/25 00:15:01;;;;;;;21.02;9.32;;;9.00;99.90;;;;;;5095350;28;20449;-62
2023/05/25 00:17:28;;;;;;;15.70;7.50;;;9.00;99.90;;;;;;5075620;28;20064;-62
2023/05/25 00:19:56;;;;;;;14.48;11.57;;;8.90;99.90;;;;;;5095259;28;20051;-62
2023/05/25 00:22:22;;;;;;;12.57;6.63;;;8.90;99.90;;;;;;5092443;28;20489;-62
2023/05/25 00:24:48;;;;;;;12.63;5.93;;;8.90;99.90;;;;;;5076209;28;20044;-62
2023/05/25 00:27:13;;;;;;;16.63;7.07;;;8.90;99.90;;;;;;5094383;28;20040;-62
2023/05/25 00:29:39;;;;;;;11.10;6.15;;;8.90;99.90;;;;;;5092600;28;20489;-62
2023/05/25 00:32:05;;;;;;;12.50;6.53;;;8.90;99.90;;;;;;5093867;28;20051;-62
2023/05/25 00:34:31;;;;;;;16.77;7.28;;;8.90;99.90;;;;;;5094262;28;20047;-62
2023/05/25 00:36:56;;;;;;;12.77;7.13;;;8.90;99.90;;;;;;5076107;28;20043;-62
2023/05/25 00:39:22;;;;;;;12.15;5.75;;;8.90;99.90;;;;;;5094198;28;20071;-62
2023/05/25 00:41:48;;;;;;;14.10;7.38;;;9.00;99.90;;;;;;5094911;28;20504;-62
2023/05/25 00:44:15;;;;;;;17.20;7.75;;;8.90;99.90;;;;;;5092083;28;20052;-62
2023/05/25 00:46:50;;;;;;;11.95;5.90;;;9.00;99.90;;;;;;5093512;28;20120;-62
2023/05/25 00:49:16;;;;;;;;;;;9.00;99.90;;;;;;5113402;28;20035;-62
2023/05/25 00:51:45;;;;;;;19.05;6.95;;;8.90;99.90;;;;;;5113852;28;20339;-62
2023/05/25 00:54:13;;;;;;;15.52;6.68;;;8.90;99.90;;;;;;5114756;28;20047;-62
2023/05/25 00:56:41;;;;;;;8.38;4.95;;;9.00;99.90;;;;;;5113186;28;20123;-62
2023/05/25 00:59:08;;;;;;;12.00;6.97;;;8.90;99.90;;;;;;5112887;28;20048;-62
2023/05/25 01:01:38;;;;;;;13.77;6.18;;;8.90;99.90;;;;;;5114549;28;20055;-62
2023/05/25 01:04:08;;;;;;;13.52;6.53;;;8.90;99.90;;;;;;5096080;28;20044;-62
2023/05/25 01:06:36;;;;;;;15.38;6.88;;;8.90;99.90;;;;;;5112543;28;20043;-62
2023/05/25 01:09:04;;;;;;;13.30;7.15;;;8.90;99.90;;;;;;5113644;28;20110;-62
2023/05/25 01:11:41;;;;;;;13.07;7.10;;;8.90;99.90;;;;;;5095197;28;20039;-62
2023/05/25 01:14:07;;;;;;;10.57;6.30;;;8.90;99.90;;;;;;5113042;28;20046;-62
2023/05/25 01:16:34;;;;;;;13.40;7.38;;;8.90;99.90;;;;;;5112005;28;20289;-62
2023/05/25 01:19:01;;;;;;;16.20;7.20;;;8.90;99.90;;;;;;5114000;28;20050;-62
2023/05/25 01:21:53;;;;;;;15.00;6.97;;;8.90;99.90;;;;;;5114069;28;20039;-62
2023/05/25 01:24:32;;;;;;;12.82;5.93;;;8.90;99.90;;;;;;5114197;28;20093;-62
2023/05/25 01:27:07;;;;;;;11.10;6.10;;;8.90;99.90;;;;;;5112588;28;20051;-62
2023/05/25 01:29:34;;;;;;;12.38;6.80;;;8.90;99.90;;;;;;5114066;28;20469;-62
2023/05/25 01:32:02;;;;;;;11.50;6.20;;;8.90;99.90;;;;;;5113274;28;20048;-62
2023/05/25 01:34:28;;;;;;;16.67;6.75;;;8.90;99.90;;;;;;5112839;28;20059;-62
2023/05/25 01:36:55;;;;;;;12.43;5.90;;;8.90;99.90;;;;;;5112718;28;20043;-62
2023/05/25 01:39:21;;;;;;;14.02;6.00;;;8.90;99.90;;;;;;5113110;28;20039;-62
2023/05/25 01:41:47;;;;;;;11.50;6.68;;;8.90;99.90;;;;;;5112921;28;20488;-62
2023/05/25 01:44:14;;;;;;;13.55;6.85;;;9.00;99.90;;;;;;5112342;28;20062;-62
2023/05/25 01:46:40;;;;;;;14.15;7.57;;;9.00;99.90;;;;;;5112968;28;20629;-62
2023/05/25 01:49:16;;;;;;;13.52;7.90;;;9.00;99.90;;;;;;5113701;28;20071;-62
2023/05/25 01:52:04;;;;;;;12.43;7.05;;;9.10;99.90;;;;;;5113555;28;20043;-62
2023/05/25 01:54:36;;;;;;;18.00;8.20;;;9.20;99.90;;;;;;5094165;28;20066;-62
2023/05/25 01:57:11;;;;;;;9.85;6.22;;;9.20;99.90;;;;;;5095547;28;20032;-62
2023/05/25 01:59:37;;;;;;;11.40;6.43;;;9.20;99.90;;;;;;5112160;28;20500;-62
2023/05/25 02:02:05;;;;;;;10.82;6.45;;;9.30;99.90;;;;;;5111551;28;20045;-62
2023/05/25 02:04:31;;;;;;;12.43;7.13;;;9.30;99.90;;;;;;5111685;28;20119;-62
2023/05/25 02:06:57;;;;;;;16.52;7.28;;;9.20;99.90;;;;;;5114016;28;20395;-62
2023/05/25 02:09:22;;;;;;;12.15;6.65;;;9.20;99.90;;;;;;5091793;28;20036;-62
2023/05/25 02:11:48;;;;;;;14.20;7.57;;;9.20;99.90;;;;;;5091848;28;20101;-62
2023/05/25 02:14:15;;;;;;;15.85;8.00;;;9.10;99.90;;;;;;5091689;28;20401;-62
2023/05/25 02:16:41;;;;;;;17.88;8.05;;;9.20;99.90;;;;;;5092031;28;20153;-62
2023/05/25 02:19:07;;;;;;;15.13;7.47;;;9.20;99.90;;;;;;5091800;28;20043;-62
2023/05/25 02:21:36;;;;;;;14.77;7.28;;;9.10;99.90;;;;;;5091119;28;20032;-62
2023/05/25 02:24:02;;;;;;;16.15;7.95;;;9.10;99.90;;;;;;5092035;28;20050;-62
2023/05/25 02:26:28;;;;;;;12.25;7.47;;;9.10;99.90;;;;;;5092342;28;20047;-62
2023/05/25 02:28:53;;;;;;;15.35;6.95;;;9.10;99.90;;;;;;5092039;28;20039;-62
2023/05/25 02:31:20;;;;;;;12.73;7.38;;;9.10;99.90;;;;;;5092565;28;20036;-62
2023/05/25 02:33:45;;;;;;;16.52;7.97;;;9.10;99.90;;;;;;5092793;28;20400;-62
2023/05/25 02:36:11;;;;;;;15.27;8.15;;;9.10;99.90;;;;;;5091649;28;20051;-62
2023/05/25 02:38:37;;;;;;;15.10;7.90;;;9.00;99.90;;;;;;5090847;28;20032;-62
2023/05/25 02:41:02;;;;;;;15.38;7.75;;;9.00;99.90;;;;;;5074662;28;20059;-62
2023/05/25 02:43:28;;;;;;;9.77;6.07;;;8.90;99.90;;;;;;5091069;28;20055;-62
2023/05/25 02:45:54;;;;;;;9.48;6.22;;;9.00;99.90;;;;;;5092460;28;20405;-62
2023/05/25 02:48:20;;;;;;;16.63;6.65;;;9.00;99.90;;;;;;5090061;28;20074;-62
2023/05/25 02:50:46;;;;;;;10.15;5.97;;;9.00;99.90;;;;;;5090287;28;20050;-62
2023/05/25 02:53:12;;;;;;;12.52;6.90;;;8.90;99.90;;;;;;5092145;28;20040;-62
2023/05/25 02:55:39;;;;;;;12.85;7.70;;;8.90;99.90;;;;;;5074154;28;20044;-62
2023/05/25 02:58:05;;;;;;;9.55;5.85;;;8.90;99.90;;;;;;5091521;28;20040;-62
2023/05/25 03:00:31;;;;;;;11.95;6.70;;;8.90;99.90;;;;;;5091861;28;20451;-62
2023/05/25 03:02:56;;;;;;;12.32;6.22;;;8.90;99.90;;;;;;5092227;28;20035;-62
2023/05/25 03:05:22;;;;;;;14.85;7.85;;;8.90;99.90;;;;;;5091042;28;20057;-62
2023/05/25 03:07:48;;;;;;;14.07;6.75;;;8.90;99.90;;;;;;5090957;28;20040;-62
2023/05/25 03:10:13;;;;;;;13.05;7.32;;;8.80;99.90;;;;;;5090743;28;20044;-62
2023/05/25 03:12:39;;;;;;;15.48;9.48;;;8.80;99.90;;;;;;5090936;28;20771;-62
2023/05/25 03:15:05;;;;;;;13.85;8.95;;;8.80;99.90;;;;;;5090972;28;20040;-62
2023/05/25 03:17:31;;;;;;;10.27;6.47;;;8.80;99.90;;;;;;5091566;28;20089;-62
2023/05/25 03:19:56;;;;;;;10.95;6.25;;;8.80;99.90;;;;;;5090073;28;20036;-62
2023/05/25 03:22:22;;;;;;;12.65;7.78;;;8.80;99.90;;;;;;5090353;28;20035;-62
2023/05/25 03:24:49;;;;;;;13.75;8.75;;;8.80;99.90;;;;;;5092375;28;20081;-62
2023/05/25 03:27:14;;;;;;;12.35;6.72;;;8.80;99.90;;;;;;5090940;28;20044;-62
2023/05/25 03:29:40;;;;;;;16.60;8.77;;;8.70;99.90;;;;;;5073974;28;20055;-62
2023/05/25 03:32:06;;;;;;;16.20;8.65;;;8.70;99.90;;;;;;5091850;28;20485;-62
2023/05/25 03:34:34;;;;;;;13.23;8.75;;;8.70;99.90;;;;;;5089724;28;20115;-62
2023/05/25 03:37:00;;;;;;;18.35;9.23;;;8.70;99.90;;;;;;5090727;28;20094;-62
2023/05/25 03:39:25;;;;;;;11.85;6.35;;;8.60;99.90;;;;;;5082010;28;20036;-62
2023/05/25 03:41:51;;;;;;;13.43;7.00;;;8.60;99.90;;;;;;5112256;28;20031;-62
2023/05/25 03:44:16;;;;;;;16.60;8.23;;;8.60;99.90;;;;;;5110692;28;20561;-62
2023/05/25 03:46:42;;;;;;;11.35;7.18;;;8.60;99.90;;;;;;5109917;28;20048;-62
2023/05/25 03:49:12;;;;;;;13.90;6.93;;;8.60;99.90;;;;;;5112458;28;20101;-62
2023/05/25 03:51:39;;;;;;;15.90;7.38;;;8.60;99.90;;;;;;5110654;28;20051;-62
2023/05/25 03:54:05;;;;;;;16.42;8.23;;;8.60;99.90;;;;;;5110261;28;20495;-62
2023/05/25 03:56:31;;;;;;;12.57;6.95;;;8.60;99.90;;;;;;5106521;28;20093;-62
2023/05/25 03:58:56;;;;;;;14.13;7.65;;;8.70;99.90;;;;;;5090579;28;20416;-62
2023/05/25 04:01:25;;;;;;;11.35;7.25;;;8.70;99.90;;;;;;5093899;28;20088;-62
2023/05/25 04:03:51;;;;;;;17.73;8.07;;;8.60;99.90;;;;;;5094354;28;20047;-62
2023/05/25 04:06:18;;;;;;;17.80;8.50;;;8.70;99.90;;;;;;5095224;28;20408;-62
2023/05/25 04:08:44;;;;;;;13.35;8.43;;;8.70;99.90;;;;;;5076653;28;20051;-62
2023/05/25 04:11:10;;;;;;;12.82;8.30;;;8.70;99.90;;;;;;5094338;28;20052;-62
2023/05/25 04:13:38;;;;;;;14.35;7.82;;;8.70;99.90;;;;;;5093719;28;20511;-62
2023/05/25 04:16:05;;;;;;;10.73;7.90;;;8.80;99.90;;;;;;5094799;28;20090;-62
2023/05/25 04:18:31;;;;;;;13.88;7.50;;;8.80;99.90;;;;;;5093652;28;20416;-62
2023/05/25 04:20:56;;;;;;;11.23;6.72;;;8.80;99.90;;;;;;5095300;28;20046;-62
2023/05/25 04:23:22;;;;;;;13.48;8.75;;;8.90;99.90;;;;;;5093888;28;20066;-62
2023/05/25 04:25:50;;;;;;;12.98;8.48;;;8.90;99.90;;;;;;5112735;28;20036;-62
2023/05/25 04:28:16;;;;;;;11.45;7.22;;;8.90;99.90;;;;;;5115020;28;20039;-62
2023/05/25 04:30:42;;;;;;;17.98;8.90;;;9.00;99.90;;;;;;5113078;28;20035;-62
2023/05/25 04:33:10;;;;;;;15.90;9.25;;;9.00;99.90;;;;;;5114072;28;20042;-62
2023/05/25 04:35:36;;;;;;;17.67;9.20;;;9.10;99.90;;;;;;5112877;28;20044;-62
2023/05/25 04:38:03;;;;;;;12.73;7.85;;;9.10;99.90;;;;;;5115356;28;20067;-62
2023/05/25 04:40:31;;;;;;;15.18;8.68;;;9.20;99.90;;;;;;5114656;28;20439;-62
2023/05/25 04:42:58;;;;;;;14.00;8.55;;;9.30;99.90;;;;;;5114269;28;20435;-62
2023/05/25 04:45:23;;;;;;;14.35;8.93;;;9.40;99.90;;;;;;5114807;28;20055;-62
2023/05/25 04:47:49;;;;;;;13.73;9.38;;;9.50;99.90;;;;;;5097006;28;20039;-62
2023/05/25 04:50:15;;;;;;;13.38;7.93;;;9.60;99.90;;;;;;5114009;28;20040;-62
2023/05/25 04:52:41;;;;;;;14.13;8.60;;;9.70;99.90;;;;;;5114583;28;20127;-62
2023/05/25 04:55:07;;;;;;;14.82;9.60;;;9.70;99.90;;;;;;5113832;28;20466;-62
2023/05/25 04:57:33;;;;;;;22.25;10.45;;;9.80;99.90;;;;;;5113197;27;20043;-62
2023/05/25 04:59:58;;;;;;;20.13;9.13;;;9.90;99.90;;;;;;5114973;28;20035;-62
2023/05/25 05:02:24;;;;;;;16.00;9.60;;;10.00;99.90;;;;;;5114298;28;20027;-62
2023/05/25 05:04:52;;;;;;;16.52;9.63;;;10.10;99.90;;;;;;5114047;28;20046;-62
2023/05/25 05:07:21;;;;;;;16.63;11.10;;;10.20;99.90;;;;;;5114489;28;20040;-62
2023/05/25 05:09:47;;;;;;;18.80;10.40;;;10.30;99.90;;;;;;5114675;27;20075;-62
2023/05/25 05:12:13;;;;;;;17.88;9.50;;;10.40;99.90;;;;;;5094693;28;20075;-62
2023/05/25 05:14:39;;;;;;;19.00;10.10;;;10.50;99.90;;;;;;5114339;28;20574;-62
2023/05/25 05:17:05;;;;;;;18.35;9.18;;;10.60;99.90;;;;;;5114588;28;20483;-62
2023/05/25 05:19:31;;;;;;;20.80;10.75;;;10.70;99.90;;;;;;5113091;28;20036;-62
2023/05/25 05:21:58;;;;;;;17.02;9.07;;;10.80;99.90;;;;;;5095690;28;20044;-62
2023/05/25 05:24:24;;;;;;;16.13;9.55;;;10.90;99.90;;;;;;5092471;28;20048;-62
2023/05/25 05:26:50;;;;;;;22.85;11.50;;;11.00;99.90;;;;;;5091910;28;20546;-62
2023/05/25 05:29:16;;;;;;;22.00;10.93;;;11.10;99.90;;;;;;5094062;28;20032;-62
2023/05/25 05:31:42;;;;;;;20.70;10.55;;;11.20;99.90;;;;;;5074762;28;20040;-62
2023/05/25 05:34:08;;;;;;;21.88;10.98;;;11.30;99.90;;;;;;5092468;28;20112;-62
2023/05/25 05:36:33;;;;;;;22.10;10.40;;;11.40;99.90;;;;;;5093594;28;20036;-62
2023/05/25 05:38:59;;;;;;;22.40;10.98;;;11.50;99.90;;;;;;5091894;28;20536;-63
2023/05/25 05:41:26;;;;;;;23.08;10.27;;;11.60;99.90;;;;;;5091716;28;20397;-62
2023/05/25 05:43:51;;;;;;;25.02;11.20;;;11.70;99.90;;;;;;5092340;28;20055;-62
2023/05/25 05:46:17;;;;;;;22.25;11.07;;;11.70;99.90;;;;;;5091045;28;20052;-62
2023/05/25 05:48:43;;;;;;;19.60;10.57;;;11.90;99.90;;;;;;5093134;28;20058;-62
2023/05/25 05:51:08;;;;;;;23.15;10.13;;;11.90;99.90;;;;;;5103904;28;20031;-62
2023/05/25 05:53:34;;;;;;;18.05;9.95;;;12.00;99.90;;;;;;5111231;28;20047;-62
2023/05/25 05:56:01;;;;;;;16.98;8.63;;;12.10;99.90;;;;;;5112520;28;20069;-62
2023/05/25 05:58:28;;;;;;;13.93;8.13;;;12.20;99.90;;;;;;5099552;28;20068;-62
2023/05/25 06:00:55;;;;;;;16.90;6.90;;;12.20;99.90;;;;;;5106521;28;20039;-62
2023/05/25 06:03:22;;;;;;;14.68;7.15;;;12.30;99.90;;;;;;5112459;28;20044;-62
2023/05/25 06:05:48;;;;;;;16.50;6.68;;;12.40;99.90;;;;;;5102753;28;20035;-62
2023/05/25 06:08:13;;;;;;;15.73;7.03;;;12.40;99.90;;;;;;5112062;28;20035;-62
2023/05/25 06:10:39;;;;;;;11.57;5.88;;;12.40;99.90;;;;;;5106570;28;20040;-62
2023/05/25 06:13:06;;;;;;;12.32;5.07;;;12.50;99.90;;;;;;5092035;28;20042;-62
2023/05/25 06:15:32;;;;;;;14.25;5.28;;;12.50;99.90;;;;;;5108014;28;20464;-62
2023/05/25 06:17:58;;;;;;;12.82;4.50;;;12.50;99.90;;;;;;5112180;28;20404;-62
2023/05/25 06:20:23;;;;;;;11.32;4.55;;;12.50;99.90;;;;;;5107366;28;20039;-64
2023/05/25 06:22:49;;;;;;;12.77;4.75;;;12.50;99.90;;;;;;5099252;28;20039;-63
2023/05/25 06:25:15;;;;;;;14.90;5.03;;;12.50;99.90;;;;;;5108771;28;20039;-62
2023/05/25 06:27:41;;;;;;;15.07;4.40;;;12.50;99.90;;;;;;5094961;28;20044;-62
2023/05/25 06:30:07;;;;;;;15.40;4.78;;;12.60;99.90;;;;;;5112294;28;20039;-62
2023/05/25 06:32:33;;;;;;;20.40;5.53;;;12.60;99.90;;;;;;5090969;28;20051;-62
2023/05/25 06:34:59;;;;;;;13.38;4.97;;;12.70;99.90;;;;;;5108532;28;20055;-62
2023/05/25 06:37:26;;;;;;;12.00;3.90;;;12.80;99.90;;;;;;5109327;28;20044;-62
2023/05/25 06:39:52;;;;;;;11.80;5.22;;;12.80;99.90;;;;;;5108887;28;20035;-62
2023/05/25 06:42:17;;;;;;;18.67;6.40;;;12.80;99.90;;;;;;5109318;28;20031;-62
2023/05/25 06:44:43;;;;;;;22.55;5.63;;;12.90;99.90;;;;;;5107804;28;20059;-62
2023/05/25 06:47:09;;;;;;;16.65;5.40;;;12.90;99.90;;;;;;5109935;28;20084;-62
2023/05/25 06:49:35;;;;;;;15.40;5.18;;;13.00;99.90;;;;;;5103747;28;20491;-62
2023/05/25 06:52:00;;;;;;;14.43;5.53;;;13.00;99.90;;;;;;5108204;28;20039;-62
2023/05/25 06:54:26;;;;;;;15.52;4.50;;;13.00;99.90;;;;;;5108718;28;20042;-62
2023/05/25 06:56:52;;;;;;;13.98;5.10;;;13.00;99.90;;;;;;5104780;28;20039;-62
2023/05/25 06:59:17;;;;;;;14.60;5.22;;;13.00;99.90;;;;;;5108896;28;20065;-62
2023/05/25 07:01:46;;;;;;;15.32;4.80;;;13.00;99.90;;;;;;5107443;28;20484;-62
2023/05/25 07:04:11;;;;;;;12.88;4.95;;;13.10;99.90;;;;;;5107911;28;20430;-62
2023/05/25 07:06:37;;;;;;;16.85;4.68;;;13.10;99.90;;;;;;5107904;28;20039;-62
2023/05/25 07:09:03;;;;;;;14.48;4.82;;;13.10;99.90;;;;;;5109516;28;20040;-62
2023/05/25 07:11:28;;;;;;;21.08;5.20;;;13.10;99.90;;;;;;5105530;28;20260;-62
2023/05/25 07:13:54;;;;;;;14.98;5.00;;;13.20;99.90;;;;;;5089072;28;20123;-62
2023/05/25 07:16:20;;;;;;;12.90;4.50;;;13.20;99.90;;;;;;5121714;28;20127;-62
2023/05/25 07:18:45;;;;;;;14.98;5.30;;;13.30;99.90;;;;;;5088542;28;20028;-62
2023/05/25 07:21:11;;;;;;;19.63;5.45;;;13.40;99.90;;;;;;5091297;28;20093;-62
2023/05/25 07:23:39;;;;;;;20.45;6.10;;;13.30;99.90;;;;;;5108737;28;20036;-62
2023/05/25 07:26:04;;;;;;;19.98;5.50;;;13.40;99.90;;;;;;5090140;28;20515;-62
2023/05/25 07:28:30;;;;;;;15.07;4.75;;;13.40;99.90;;;;;;5108138;28;20039;-62
2023/05/25 07:30:56;;;;;;;18.40;6.00;;;13.40;99.90;;;;;;5107365;28;20047;-62
2023/05/25 07:33:21;;;;;;;17.55;5.63;;;13.40;99.90;;;;;;5107384;28;20039;-62
2023/05/25 07:35:47;;;;;;;19.65;6.40;;;13.50;99.90;;;;;;5110217;28;20071;-62
2023/05/25 07:38:13;;;;;;;20.00;5.75;;;13.60;99.90;;;;;;5090753;28;20110;-62
2023/05/25 07:40:38;;;;;;;18.40;6.22;;;13.60;99.90;;;;;;5109422;28;20043;-62
2023/05/25 07:43:04;;;;;;;16.30;5.07;;;13.70;99.90;;;;;;5112545;28;20138;-62
2023/05/25 07:45:30;;;;;;;21.00;4.95;;;13.70;99.90;;;;;;5106106;28;20040;-63
2023/05/25 07:47:56;;;;;;;13.15;5.55;;;13.70;99.90;;;;;;5077838;28;20381;-62
2023/05/25 07:50:22;;;;;;;15.93;5.80;;;13.80;99.90;;;;;;5093252;28;20442;-62
2023/05/25 07:52:48;;;;;;;14.68;5.13;;;13.70;99.90;;;;;;5099313;28;20091;-62
2023/05/25 07:55:14;;;;;;;14.00;5.28;;;13.80;99.90;;;;;;5092240;28;20083;-62
2023/05/25 07:57:39;;;;;;;17.75;4.53;;;13.90;99.90;;;;;;5103644;28;20035;-62
2023/05/25 08:00:09;;;;;;;18.75;6.63;;;14.10;99.90;;;;;;5100711;28;20040;-62
2023/05/25 08:02:35;;;;;;;19.05;6.22;;;14.40;99.90;;;;;;5104879;28;20054;-63
2023/05/25 08:05:04;;;;;;;15.48;5.65;;;14.60;99.90;;;;;;5096930;28;20032;-62
2023/05/25 08:07:33;;;;;;;16.50;5.65;;;14.80;99.90;;;;;;5101610;28;20167;-63
2023/05/25 08:09:59;;;;;;;20.38;4.82;;;14.90;99.90;;;;;;5111336;28;20119;-63
2023/05/25 08:12:25;;;;;;;14.63;4.40;;;14.70;99.90;;;;;;5103615;28;20122;-62
2023/05/25 08:14:52;;;;;;;17.77;5.10;;;14.60;99.90;;;;;;5090004;28;20039;-62
2023/05/25 08:17:18;;;;;;;16.50;5.28;;;14.60;99.90;;;;;;5100255;28;20427;-62
2023/05/25 08:19:44;;;;;;;20.38;5.45;;;14.50;99.90;;;;;;5111757;28;20050;-62
2023/05/25 08:22:10;;;;;;;25.90;6.72;;;14.60;99.90;;;;;;5110263;28;20070;-62
2023/05/25 08:24:35;;;;;;;20.08;5.45;;;14.40;99.90;;;;;;5111150;28;20035;-62
2023/05/25 08:27:01;;;;;;;25.60;5.88;;;14.40;99.90;;;;;;5111972;28;20036;-62
2023/05/25 08:29:27;;;;;;;27.70;6.78;;;14.50;99.90;;;;;;5110932;28;20044;-62
2023/05/25 08:31:53;;;;;;;20.30;5.25;;;14.50;99.90;;;;;;5103536;28;20039;-62
2023/05/25 08:34:19;;;;;;;14.52;5.30;;;14.60;99.90;;;;;;5100261;28;20078;-62
2023/05/25 08:36:44;;;;;;;18.00;5.18;;;14.60;99.90;;;;;;5098469;28;20506;-62
2023/05/25 08:39:10;;;;;;;19.13;5.97;;;14.40;99.90;;;;;;5106961;28;20081;-63
2023/05/25 08:41:40;;;;;;;16.10;4.90;;;14.30;99.90;;;;;;5092089;28;20520;-62
2023/05/25 08:44:07;;;;;;;15.07;5.25;;;14.30;99.90;;;;;;5111587;28;20504;-62
2023/05/25 08:46:34;;;;;;;23.88;7.25;;;14.40;99.90;;;;;;5092020;28;20055;-63
2023/05/25 08:49:07;;;;;;;16.42;4.75;;;14.50;99.90;;;;;;5108943;28;20051;-62
2023/05/25 08:51:36;;;;;;;18.38;5.95;;;14.70;99.90;;;;;;5090038;28;20511;-62
2023/05/25 08:54:07;;;;;;;15.38;5.18;;;14.90;99.90;;;;;;5092252;28;20644;-62
2023/05/25 08:56:40;;;;;;;14.48;5.72;;;15.10;99.90;;;;;;5109154;28;20088;-63
2023/05/25 08:59:41;;;;;;;17.63;4.78;;;15.20;99.90;;;;;;5109587;28;20089;-62
2023/05/25 09:02:25;;;;;;;18.10;5.38;;;15.10;99.90;;;;;;5107006;28;20563;-62
2023/05/25 09:04:51;;;;;;;14.75;4.38;;;15.00;99.90;;;;;;5109209;28;20039;-62
2023/05/25 09:07:17;;;;;;;17.13;5.22;;;14.70;99.90;;;;;;5111497;28;20047;-62
2023/05/25 09:09:45;;;;;;;16.77;5.65;;;14.60;99.90;;;;;;5109278;28;20058;-62
2023/05/25 09:12:11;;;;;;;19.52;5.55;;;14.50;99.90;;;;;;5100747;28;20104;-62
2023/05/25 09:14:44;;;;;;;13.20;4.72;;;14.40;99.90;;;;;;5100225;28;20083;-62
2023/05/25 09:17:13;;;;;;;13.20;4.82;;;14.30;99.90;;;;;;5104415;28;20071;-62
2023/05/25 09:19:39;;;;;;;16.00;4.72;;;14.30;99.90;;;;;;5092911;27;20083;-62
2023/05/25 09:22:04;;;;;;;13.63;4.75;;;14.40;99.90;;;;;;5099871;28;20031;-62
2023/05/25 09:24:30;;;;;;;13.38;5.10;;;14.50;99.90;;;;;;5108036;28;20044;-63
2023/05/25 09:26:56;;;;;;;23.92;5.25;;;14.60;99.90;;;;;;5110828;27;20055;-62
2023/05/25 09:29:22;;;;;;;14.23;3.60;;;14.80;99.90;;;;;;5109596;28;20040;-62
2023/05/25 09:31:47;;;;;;;18.05;4.90;;;14.80;99.90;;;;;;5112954;27;20403;-62
2023/05/25 09:34:14;;;;;;;15.32;4.68;;;14.70;99.90;;;;;;5120767;27;20050;-62
2023/05/25 09:36:42;;;;;;;17.75;5.35;;;14.60;99.90;;;;;;5099150;28;20040;-62
2023/05/25 09:39:09;;;;;;;18.05;5.65;;;14.50;99.90;;;;;;5104387;28;20043;-62
2023/05/25 09:41:36;;;;;;;13.10;4.85;;;14.60;99.90;;;;;;5095385;28;20543;-62
2023/05/25 09:44:03;;;;;;;22.65;5.78;;;14.70;99.90;;;;;;5107467;28;20063;-62
2023/05/25 09:46:31;;;;;;;17.55;4.70;;;14.80;99.90;;;;;;5108489;28;20051;-62
2023/05/25 09:48:59;;;;;;;15.93;5.03;;;15.00;99.90;;;;;;5109624;28;20051;-62
2023/05/25 09:51:25;;;;;;;23.02;5.70;;;15.00;99.90;;;;;;5101153;28;20051;-63
2023/05/25 09:53:51;;;;;;;14.35;4.47;;;14.80;99.90;;;;;;5109371;28;20043;-62
2023/05/25 09:56:17;;;;;;;17.08;5.00;;;14.70;99.90;;;;;;5108995;28;20054;-62
2023/05/25 09:58:44;;;;;;;19.00;4.93;;;14.70;99.90;;;;;;5108511;28;20047;-62
2023/05/25 10:01:10;;;;;;;20.02;5.65;;;14.90;99.90;;;;;;5109432;28;20035;-62
2023/05/25 10:03:45;;;;;;;18.02;5.18;;;15.00;99.90;;;;;;5110575;28;20400;-63
2023/05/25 10:06:13;;;;;;;15.52;4.82;;;15.10;99.90;;;;;;5108580;28;20058;-62
2023/05/25 10:08:41;;;;;;;19.73;5.28;;;15.20;99.90;;;;;;5105161;28;20362;-62
2023/05/25 10:11:07;;;;;;;16.98;5.50;;;15.40;99.90;;;;;;5103839;28;20061;-62
2023/05/25 10:13:33;;;;;;;22.58;5.68;;;15.30;99.90;;;;;;5092698;28;20054;-62
2023/05/25 10:15:59;;;;;;;14.10;5.45;;;15.20;99.90;;;;;;5101261;28;20403;-63
2023/05/25 10:18:27;;;;;;;19.33;5.55;;;15.20;99.90;;;;;;5108694;28;20389;-63
2023/05/25 10:21:01;;;;;;;22.60;6.85;;;15.10;99.90;;;;;;5109376;28;20075;-61
2023/05/25 10:23:34;;;;;;;17.58;5.55;;;15.10;99.90;;;;;;5110342;28;20169;-61
2023/05/25 10:26:04;;;;;;;25.08;6.35;;;15.00;99.90;;;;;;5108665;28;20044;-62
2023/05/25 10:28:40;;;;;;;18.42;5.72;;;15.00;99.90;;;;;;5094761;28;20485;-62
2023/05/25 10:31:09;;;;;;;16.67;5.78;;;14.90;99.90;;;;;;5087572;28;20036;-62
2023/05/25 10:33:36;;;;;;;19.38;5.80;;;14.80;99.90;;;;;;5109529;28;20040;-62
2023/05/25 10:36:02;;;;;;;20.17;6.15;;;14.70;99.90;;;;;;5105766;28;20397;-62
2023/05/25 10:38:32;;;;;;;14.70;5.03;;;14.60;99.90;;;;;;5109510;28;20088;-62
2023/05/25 10:40:59;;;;;;;22.13;6.45;;;14.70;99.90;;;;;;5109587;28;20047;-62
2023/05/25 10:43:26;;;;;;;18.42;5.10;;;14.80;99.90;;;;;;5108230;28;20077;-62
2023/05/25 10:45:52;;;;;;;16.95;5.35;;;14.80;99.90;;;;;;5109078;28;20380;-62
2023/05/25 10:48:18;;;;;;;17.73;5.35;;;14.80;99.90;;;;;;5110006;28;20043;-62
2023/05/25 10:50:50;;;;;;;23.75;6.25;;;14.80;99.90;;;;;;5109225;28;20036;-62
2023/05/25 10:53:19;;;;;;;21.25;5.35;;;14.90;99.90;;;;;;5108808;28;20499;-62
2023/05/25 10:56:04;;;;;;;20.70;5.68;;;14.90;99.90;;;;;;5107442;28;20058;-62
2023/05/25 10:58:30;;;;;;;19.93;5.07;;;14.90;99.90;;;;;;5089362;28;20042;-62
2023/05/25 11:01:00;;;;;;;21.77;6.28;;;14.80;99.90;;;;;;5108454;28;20032;-62
2023/05/25 11:04:04;;;;;;;20.98;6.25;;;14.70;99.90;;;;;;5107108;28;20044;-62
2023/05/25 11:06:36;;;;;;;20.30;6.40;;;14.70;99.90;;;;;;5099372;28;20051;-63
2023/05/25 11:09:03;;;;;;;16.73;5.28;;;14.70;99.90;;;;;;5100960;28;20396;-62
2023/05/25 11:11:47;;;;;;;22.20;6.55;;;14.70;99.90;;;;;;5119416;28;20343;-61
2023/05/25 11:14:34;;;;;;;15.95;5.22;;;14.80;99.90;;;;;;5124150;28;20043;-61
2023/05/25 11:17:31;;;;;;;24.40;7.03;;;15.00;99.90;;;;;;5087411;28;20435;-61
2023/05/25 11:20:05;;;;;;;16.48;4.90;;;15.10;99.90;;;;;;5085507;28;20063;-61
2023/05/25 11:22:34;;;;;;;22.40;5.60;;;15.00;99.90;;;;;;5092902;28;20032;-62
2023/05/25 11:25:01;;;;;;;20.85;7.03;;;15.20;99.90;;;;;;5100850;28;20048;-62
2023/05/25 11:27:29;;;;;;;16.85;5.40;;;15.20;99.90;;;;;;5109381;28;20039;-62
2023/05/25 11:29:56;;;;;;;19.25;6.03;;;15.10;99.90;;;;;;5105528;28;20097;-62
2023/05/25 11:32:23;;;;;;;17.92;6.82;;;15.00;99.90;;;;;;5105607;28;20039;-62
2023/05/25 11:34:52;;;;;;;15.40;5.63;;;15.20;99.90;;;;;;5112042;28;20114;-62
2023/05/25 11:37:20;;;;;;;20.90;6.45;;;15.20;99.90;;;;;;5112102;28;20081;-62
2023/05/25 11:39:53;;;;;;;21.92;5.63;;;15.20;99.90;;;;;;5107051;28;20388;-62
2023/05/25 11:42:23;;;;;;;18.17;6.95;;;15.30;99.90;;;;;;5088624;28;20087;-62
2023/05/25 11:44:50;;;;;;;19.77;5.95;;;15.20;99.90;;;;;;5095969;28;20051;-62
2023/05/25 11:47:21;;;;;;;18.77;6.30;;;15.10;99.90;;;;;;5103367;28;20076;-62
2023/05/25 11:49:48;;;;;;;20.67;5.95;;;15.10;99.90;;;;;;5107498;28;20035;-62
2023/05/25 11:52:16;;;;;;;17.70;5.13;;;15.00;99.90;;;;;;5099000;28;20062;-62
2023/05/25 11:54:43;;;;;;;19.13;5.10;;;15.10;99.90;;;;;;5098702;28;20043;-63
2023/05/25 11:57:24;;;;;;;17.05;5.88;;;15.10;99.90;;;;;;5091097;28;20028;-62
2023/05/25 11:59:52;;;;;;;25.27;6.25;;;15.10;99.90;;;;;;5106732;28;20050;-62
2023/05/25 12:02:18;;;;;;;22.17;6.35;;;15.00;99.90;;;;;;5090098;28;20035;-62
2023/05/25 12:05:00;;;;;;;18.65;5.78;;;15.00;99.90;;;;;;5106537;28;20040;-62
2023/05/25 12:07:27;;;;;;;19.02;6.13;;;15.00;99.90;;;;;;5087752;28;20035;-62
2023/05/25 12:10:05;;;;;;;18.77;6.80;;;15.00;99.90;;;;;;5090586;28;20489;-62
2023/05/25 12:12:43;;;;;;;18.27;6.38;;;15.10;99.90;;;;;;5090376;28;20040;-62
2023/05/25 12:15:10;;;;;;;23.20;6.10;;;15.20;99.90;;;;;;5091287;28;20065;-62
2023/05/25 12:17:39;;;;;;;16.58;5.75;;;15.20;99.90;;;;;;5111005;28;20405;-62
2023/05/25 12:20:06;;;;;;;19.05;6.35;;;15.20;99.90;;;;;;5109867;28;20039;-62
2023/05/25 12:22:32;;;;;;;17.92;5.97;;;15.30;99.90;;;;;;5112597;28;20040;-62
2023/05/25 12:24:59;;;;;;;21.13;5.30;;;15.20;99.90;;;;;;5115341;28;20032;-62
2023/05/25 12:27:25;;;;;;;19.40;5.05;;;15.10;99.90;;;;;;5114198;28;20097;-62
2023/05/25 12:29:52;;;;;;;15.57;5.00;;;15.20;99.90;;;;;;5097371;28;20047;-62
2023/05/25 12:32:18;;;;;;;21.90;5.80;;;15.30;99.90;;;;;;5114179;28;20429;-62
2023/05/25 12:34:44;;;;;;;22.55;6.85;;;15.40;99.90;;;;;;5112990;28;20119;-62
2023/05/25 12:37:21;;;;;;;23.65;7.18;;;15.30;99.90;;;;;;5114051;28;20047;-62
2023/05/25 12:39:47;;;;;;;20.92;6.10;;;15.40;99.90;;;;;;5115268;28;20115;-62
2023/05/25 12:42:14;;;;;;;20.73;6.10;;;15.40;99.90;;;;;;5094303;28;20118;-62